LRTR/TSR METAR and TAF weather

Enter ICAO airport designator
Station Type Date Time Source
LRTR METAR 2020/04/05 22:30 UTC NOAA

LRTR 052230Z 13004KT CAVOK 07/M02 Q1028


Station Type Date Time Source
LRTR Decoded METAR 2020/04/05 22:30 UTC NOAA

Timisoara, Romania (LRTR) 45-46N 021-15E 88M
Apr 05, 2020 - 06:30 PM EDT / 2020.04.05 2230 UTC
Wind: from the SE (130 degrees) at 5 MPH (4 KT):0
Visibility: greater than 7 mile(s):0
Temperature: 44 F (7 C)
Dew Point: 28 F (-2 C)
Relative Humidity: 52%
Pressure (altimeter): 30.36 in. Hg (1028 hPa)
ob: LRTR 052230Z 13004KT CAVOK 07/M02 Q1028
cycle: 22

Station Type Date Time Source
LRTR TAF 2020/04/05 18:33 UTC NOAA

TAF LRTR 051700Z 0518/0618 08008KT CAVOK

Example: see airport list